Alpha, California Weather observations
Data are for observation ending at time listed.
Day Time Ave. Ave. Ave. Vector Max. Stn. Total Solar Ave. Snow
of of Air Rel. Wind Wind Wind Baro. Precip. Rad. Soil Depth
Year Day Temp. Hum. Speed Dir. Gust Pres. Temp.
2026 (PST) F % mph deg. mph mb. in. W/m2 F in.
---------------------------------------------------------------------------------------
126 13:50 58.6 23 3.4 359 11.1 790.1 0.00 459 999.0 999.0
126 14:00 59.5 22 2.2 21 5.5 790.0 0.00 450 999.0 999.0
126 14:10 59.0 21 4.5 27 8.3 790.0 0.00 439 999.0 999.0
126 14:20 59.0 23 4.4 33 8.6 789.9 0.00 426 999.0 999.0
126 14:30 59.5 23 3.2 30 7.8 789.8 0.00 413 999.0 999.0
126 14:40 59.8 23 4.1 47 11.0 789.8 0.00 401 999.0 999.0
126 14:50 59.7 23 3.4 59 6.8 789.8 0.00 389 999.0 999.0
126 15:00 60.5 22 4.2 70 9.2 789.7 0.00 350 999.0 999.0
126 15:10 60.2 28 3.3 70 7.1 789.6 0.00 229 999.0 999.0
126 15:20 58.9 51 1.8 309 6.6 789.6 0.00 165 999.0 999.0
126 15:30 57.9 54 1.7 281 3.8 789.5 0.00 187 999.0 999.0
126 15:40 57.6 61 1.8 220 5.6 789.6 0.00 110 999.0 999.0
126 15:50 57.0 61 1.9 235 5.0 789.6 0.00 222 999.0 999.0
126 16:00 59.3 51 2.1 295 6.1 789.5 0.00 113 999.0 999.0
126 16:10 60.2 46 2.1 324 8.0 789.6 0.00 48 999.0 999.0
126 16:20 59.5 41 2.4 329 7.4 789.6 0.00 136 999.0 999.0
126 16:30 58.6 47 3.3 335 8.5 789.6 0.00 214 999.0 999.0
126 16:40 57.7 51 3.5 336 7.5 789.6 0.00 195 999.0 999.0
126 16:50 57.7 53 3.6 325 8.0 789.7 0.00 176 999.0 999.0
126 17:00 58.1 53 3.6 322 10.2 789.6 0.00 157 999.0 999.0
126 17:10 57.1 55 4.7 327 9.0 789.7 0.00 137 999.0 999.0
126 17:20 56.4 57 4.1 328 9.1 789.7 0.00 44 999.0 999.0
126 17:30 56.0 57 4.5 332 11.2 789.7 0.00 81 999.0 999.0
126 17:40 55.3 58 4.8 332 10.2 789.7 0.00 87 999.0 999.0
126 17:50 55.1 58 4.2 336 9.9 789.7 0.00 72 999.0 999.0
126 18:00 55.0 59 3.6 341 7.4 789.7 0.00 57 999.0 999.0
126 18:10 55.1 58 3.5 341 7.6 789.7 0.00 43 999.0 999.0
126 18:20 54.4 61 3.4 339 6.4 789.7 0.00 28 999.0 999.0
126 18:30 52.9 64 3.9 337 8.0 789.8 0.00 10 999.0 999.0
126 18:40 52.2 66 3.2 347 4.8 789.9 0.00 8 999.0 999.0
126 18:50 51.6 68 2.8 348 5.8 789.9 0.00 5 999.0 999.0
126 19:00 51.1 70 2.8 348 4.4 790.0 0.00 2 999.0 999.0
126 19:10 50.4 72 2.6 354 4.4 790.1 0.00 1 999.0 999.0
126 19:20 50.1 74 2.8 356 4.5 790.1 0.00 0 999.0 999.0
126 19:30 49.9 76 2.1 358 3.9 790.2 0.00 0 999.0 999.0
126 19:40 50.6 74 3.1 14 5.5 790.3 0.00 0 999.0 999.0
126 19:50 51.2 70 1.2 62 5.3 790.4 0.00 0 999.0 999.0
126 20:00 50.1 74 1.9 90 2.9 790.5 0.00 0 999.0 999.0
126 20:10 49.8 75 3.0 96 4.5 790.6 0.00 0 999.0 999.0
126 20:20 50.0 75 2.2 87 4.2 790.6 0.00 0 999.0 999.0
126 20:30 50.1 74 2.6 108 4.3 790.7 0.00 0 999.0 999.0
126 20:40 50.0 75 2.8 92 4.5 790.7 0.00 0 999.0 999.0
126 20:50 50.2 74 1.8 75 3.8 790.8 0.00 0 999.0 999.0
126 21:00 50.7 67 0.6 75 1.5 790.8 0.00 0 999.0 999.0
126 21:10 51.0 66 0.0 315 0.4 790.8 0.00 0 999.0 999.0
126 21:20 50.6 68 0.1 314 0.6 790.8 0.00 0 999.0 999.0
126 21:30 50.4 70 0.7 304 1.7 790.8 0.00 0 999.0 999.0
126 21:40 50.5 69 1.6 317 2.8 790.8 0.00 0 999.0 999.0
126 21:50 50.6 68 1.6 335 2.1 790.8 0.00 0 999.0 999.0
126 22:00 50.6 68 1.7 336 2.3 790.8 0.00 0 999.0 999.0
126 22:10 50.5 68 1.7 340 2.3 790.8 0.00 0 999.0 999.0
126 22:20 50.5 66 1.7 348 2.3 790.8 0.00 0 999.0 999.0
126 22:30 50.5 66 1.8 350 2.6 790.8 0.00 0 999.0 999.0
126 22:40 50.6 65 2.0 354 3.9 790.7 0.00 0 999.0 999.0
126 22:50 50.8 61 2.0 353 3.6 790.8 0.00 0 999.0 999.0
126 23:00 51.0 58 2.4 358 3.8 790.8 0.00 0 999.0 999.0
126 23:10 51.4 54 1.6 350 2.6 790.8 0.00 0 999.0 999.0
126 23:20 51.5 52 1.9 357 3.1 790.8 0.00 0 999.0 999.0
126 23:30 51.9 50 1.3 354 2.3 790.8 0.00 0 999.0 999.0
126 23:40 51.9 50 1.3 348 1.8 790.8 0.00 0 999.0 999.0
126 23:50 51.7 50 1.3 342 2.6 790.8 0.00 0 999.0 999.0
127 0:00 51.8 50 1.8 359 3.1 790.7 0.00 0 999.0 999.0
127 0:10 52.0 49 1.6 358 2.9 790.7 0.00 0 999.0 999.0
127 0:20 51.9 49 1.2 352 1.5 790.7 0.00 0 999.0 999.0
127 0:30 51.8 50 1.2 360 2.7 790.6 0.00 0 999.0 999.0
127 0:40 51.7 50 0.8 0 1.9 790.6 0.00 0 999.0 999.0
127 0:50 51.5 50 1.1 345 1.5 790.6 0.00 0 999.0 999.0
127 1:00 51.5 50 1.3 348 1.7 790.6 0.00 0 999.0 999.0
127 1:10 51.7 49 1.3 348 1.6 790.5 0.00 0 999.0 999.0
127 1:20 51.7 48 1.4 347 2.0 790.5 0.00 0 999.0 999.0
127 1:30 51.8 48 1.4 348 1.8 790.4 0.00 0 999.0 999.0
127 1:40 51.7 48 1.3 350 2.0 790.4 0.00 0 999.0 999.0
127 1:50 51.8 48 1.4 352 1.8 790.3 0.00 0 999.0 999.0
127 2:00 51.9 47 1.5 353 2.4 790.2 0.00 0 999.0 999.0
127 2:10 51.9 47 1.4 352 2.3 790.1 0.00 0 999.0 999.0
127 2:20 51.9 47 1.4 346 2.0 790.1 0.00 0 999.0 999.0
127 2:30 51.8 47 1.3 334 2.6 790.1 0.00 0 999.0 999.0
127 2:40 51.8 46 1.5 322 2.7 790.0 0.00 0 999.0 999.0
127 2:50 51.4 47 1.4 324 2.5 790.0 0.00 0 999.0 999.0
127 3:00 50.9 48 1.5 324 2.6 789.9 0.00 0 999.0 999.0
127 3:10 50.5 49 1.5 323 2.4 789.9 0.00 0 999.0 999.0
127 3:20 50.1 50 1.4 325 3.1 789.9 0.00 0 999.0 999.0
127 3:30 50.2 50 1.9 320 3.2 790.0 0.00 0 999.0 999.0
127 3:40 50.0 50 2.2 324 3.6 789.9 0.00 0 999.0 999.0
127 3:50 50.1 50 2.1 327 3.4 789.8 0.00 0 999.0 999.0
127 4:00 50.0 50 1.8 331 2.3 789.8 0.00 0 999.0 999.0
127 4:10 49.8 51 1.4 328 2.5 789.8 0.00 0 999.0 999.0
127 4:20 49.4 52 1.8 332 3.5 789.8 0.00 0 999.0 999.0
127 4:30 49.1 53 1.9 331 2.6 789.8 0.00 0 999.0 999.0
127 4:40 48.9 54 1.7 332 2.5 789.8 0.00 0 999.0 999.0
127 4:50 48.5 54 1.6 336 2.3 789.8 0.00 0 999.0 999.0
127 5:00 48.5 53 1.6 338 2.1 789.8 0.00 1 999.0 999.0
127 5:10 48.6 51 1.4 337 1.7 789.9 0.00 3 999.0 999.0
127 5:20 48.8 50 1.4 342 1.9 789.9 0.00 8 999.0 999.0
127 5:30 49.8 46 1.3 349 1.9 789.9 0.00 20 999.0 999.0
127 5:40 51.0 43 1.0 350 1.5 790.0 0.00 14 999.0 999.0
127 5:50 50.7 43 1.1 348 2.3 790.0 0.00 10 999.0 999.0
127 6:00 50.6 43 1.0 348 1.6 790.1 0.00 15 999.0 999.0
127 6:10 50.9 42 0.7 349 1.3 790.2 0.00 24 999.0 999.0
127 6:20 51.5 41 1.0 343 1.8 790.2 0.00 21 999.0 999.0
127 6:30 52.4 39 0.9 342 1.8 790.3 0.00 37 999.0 999.0
127 6:40 52.3 39 0.9 343 2.4 790.4 0.00 47 999.0 999.0
127 6:50 52.4 39 1.1 342 2.9 790.4 0.00 88 999.0 999.0
127 7:00 53.3 39 1.5 342 4.1 790.5 0.00 168 999.0 999.0
127 7:10 54.0 39 1.6 338 4.2 790.4 0.00 187 999.0 999.0
127 7:20 54.4 39 1.7 332 4.2 790.5 0.00 206 999.0 999.0
127 7:30 54.1 40 2.1 327 5.3 790.6 0.00 225 999.0 999.0
127 7:40 53.9 41 2.4 330 5.3 790.6 0.00 244 999.0 999.0
127 7:50 54.2 41 2.0 328 6.9 790.7 0.00 263 999.0 999.0
127 8:00 54.6 40 2.0 330 5.8 790.7 0.00 280 999.0 999.0
127 8:10 54.6 37 2.8 330 9.6 790.7 0.00 298 999.0 999.0
127 8:20 54.8 33 2.6 333 5.8 790.7 0.00 316 999.0 999.0
127 8:30 55.0 30 2.7 330 6.1 790.7 0.00 334 999.0 999.0
127 8:40 55.4 30 2.5 324 4.8 790.8 0.00 350 999.0 999.0
127 8:50 55.5 31 2.8 318 6.6 790.8 0.00 365 999.0 999.0
127 9:00 55.5 32 2.1 327 5.5 790.8 0.00 380 999.0 999.0
127 9:10 56.2 34 1.9 312 4.6 790.8 0.00 392 999.0 999.0
127 9:20 56.2 33 3.1 299 7.4 790.7 0.00 406 999.0 999.0
127 9:30 56.2 33 2.7 300 5.7 790.7 0.00 420 999.0 999.0
127 9:40 56.8 31 3.0 313 8.0 790.8 0.00 433 999.0 999.0
127 9:50 56.9 31 2.7 323 7.4 790.9 0.00 444 999.0 999.0
127 10:00 57.1 29 3.0 302 9.1 790.9 0.00 455 999.0 999.0
127 10:10 57.2 32 2.9 315 8.3 790.9 0.00 464 999.0 999.0
127 10:20 57.3 34 2.1 328 6.5 790.9 0.00 471 999.0 999.0
127 10:30 57.5 35 2.3 325 6.1 790.9 0.00 478 999.0 999.0
127 10:40 57.8 38 2.8 296 11.5 791.0 0.00 486 999.0 999.0
127 10:50 57.8 43 3.3 270 6.3 790.9 0.00 493 999.0 999.0
127 11:00 58.3 39 2.8 280 6.6 790.9 0.00 497 999.0 999.0
127 11:10 59.0 40 3.3 269 11.2 790.8 0.00 502 999.0 999.0
127 11:20 59.3 38 2.7 272 7.7 790.8 0.00 506 999.0 999.0
127 11:30 59.3 36 3.2 284 9.1 790.8 0.00 511 999.0 999.0
127 11:40 58.8 39 2.8 279 6.7 790.8 0.00 511 999.0 999.0
127 11:50 59.2 40 3.3 282 8.1 790.8 0.00 513 999.0 999.0
127 12:00 58.8 39 4.8 276 10.3 790.7 0.00 512 999.0 999.0
127 12:10 58.3 39 5.2 269 10.5 790.7 0.00 512 999.0 999.0
127 12:20 58.6 38 4.5 270 11.0 790.7 0.00 511 999.0 999.0
127 12:30 58.7 37 4.7 250 11.6 790.7 0.00 510 999.0 999.0
127 12:40 58.4 34 5.9 240 11.6 790.7 0.00 506 999.0 999.0
127 12:50 59.7 32 4.9 245 9.2 790.7 0.00 503 999.0 999.0
127 13:00 58.3 32 5.8 243 14.5 790.7 0.00 497 999.0 999.0
127 13:10 58.4 33 6.1 239 13.4 790.7 0.00 491 999.0 999.0
127 13:20 58.3 34 5.4 253 10.2 790.6 0.00 485 999.0 999.0
127 13:30 58.5 34 5.7 232 16.4 790.6 0.00 476 999.0 999.0
127 13:40 58.7 34 5.0 251 10.7 790.5 0.00 467 999.0 999.0
Return to Alpha graphs page.
Western Regional Climate Center,wrcc@dri.edu